Capitol Logistics 18


PANC
Ted Stevens Anchorage International Airport
Anchorage, Alaska, US
RCTP
Taiwan Taoyuan International Airport
Taipei, , TW

Activity Log

Date Flight Route Aircraft Duration
No Flights Yet

Route Details

Aircraft Information
Primary: Boeing 747-400BCF
Backup: Boeing 777-200LRF
Route Data
Distance: 4065nm
Sched. Duration: 10h 00m
Avg. Duration: 0h 00m (-1,000m)
Times Flown: 0
Recm'd Route: NODLE R220 NANNO ALICE Y111 MQE Y124 GTC Y12 KEC A1 AISAR A1 DRAKE DRAKE1A
Planned Altitude: 32,000ft
Origin Wx: PANC 270153Z 06003KT 10SM FEW120 BKN250 M04/M12 A2949 RMK AO2 SLP988 T10391117
Dest. Wx: RCTP 270200Z 05019G29KT 9999 FEW007 BKN011 BKN020 18/16 Q1023 NOSIG RMK A3023
Notes:

Financial History
Total Freight: 0lbs
Average Load: 0lbs/flt
Fuel Used: 0lbs
Avg. Fuel Used: 0lbs/flt
Fuel Expense: $0
Avg. Fuel Expense: $0
Avg. Fuel Cost: $0/lbs
Total Gross Income: $0
Pilot Pay: $0
Total Expenses: $0
Total Revenue: $0
Average Revenue: $0